Time;durP1;ratioP1;P1;durP2;ratioP2;P2;SDS_P1;SDS_P2;PMS_P1;PMS_P2;Temp;Humidity;BMP_temperature;BMP_pressure;BME280_temperature;BME280_humidity;BME280_pressure;Samples;Min_cycle;Max_cycle;Signal;HPM_P1;HPM_P2
2021/09/21 00:01:11;;;;;;;19.85;6.30;;;17.80;91.80;;;;;;5082089;28;20039;-62
2021/09/21 00:03:37;;;;;;;18.77;6.40;;;17.70;91.80;;;;;;5080006;28;20416;-62
2021/09/21 00:06:03;;;;;;;14.25;5.97;;;17.80;91.90;;;;;;5081907;28;20071;-62
2021/09/21 00:08:29;;;;;;;13.25;6.10;;;17.70;91.90;;;;;;5063667;28;20054;-62
2021/09/21 00:10:55;;;;;;;13.65;6.00;;;17.70;91.80;;;;;;5066496;28;20040;-62
2021/09/21 00:13:21;;;;;;;8.68;5.40;;;17.70;91.90;;;;;;5065480;28;20036;-62
2021/09/21 00:15:46;;;;;;;14.82;6.13;;;17.60;91.90;;;;;;5066743;28;20032;-62
2021/09/21 00:18:12;;;;;;;8.68;5.10;;;17.70;91.90;;;;;;5066798;28;20032;-62
2021/09/21 00:20:37;;;;;;;10.30;5.88;;;17.60;91.90;;;;;;5083816;28;20050;-62
2021/09/21 00:23:03;;;;;;;8.05;5.63;;;17.60;91.90;;;;;;5082296;28;20032;-62
2021/09/21 00:25:28;;;;;;;11.20;5.50;;;17.60;91.90;;;;;;5082465;28;20070;-62
2021/09/21 00:27:54;;;;;;;11.52;6.47;;;17.60;91.90;;;;;;5066164;28;20082;-62
2021/09/21 00:30:20;;;;;;;13.88;6.15;;;17.60;92.00;;;;;;5084042;28;20052;-62
2021/09/21 00:32:48;;;;;;;13.50;6.13;;;17.60;91.90;;;;;;5081912;28;20024;-62
2021/09/21 00:35:13;;;;;;;15.27;7.95;;;17.50;91.90;;;;;;5066113;28;20163;-62
2021/09/21 00:37:39;;;;;;;11.55;5.47;;;17.50;92.00;;;;;;5063936;28;20254;-62
2021/09/21 00:40:05;;;;;;;13.13;6.43;;;17.50;92.00;;;;;;5082295;28;20435;-63
2021/09/21 00:42:31;;;;;;;17.77;6.45;;;17.50;92.00;;;;;;5082866;28;20524;-62
2021/09/21 00:45:03;;;;;;;17.60;6.97;;;17.50;92.00;;;;;;5076698;28;20463;-62
2021/09/21 00:47:28;;;;;;;15.05;6.97;;;17.40;92.00;;;;;;5077005;28;20387;-62
2021/09/21 00:49:54;;;;;;;17.38;7.57;;;17.40;92.00;;;;;;5062959;28;20028;-62
2021/09/21 00:52:19;;;;;;;15.15;7.82;;;17.40;92.00;;;;;;5080259;28;20498;-62
2021/09/21 00:54:45;;;;;;;15.93;6.68;;;17.40;92.00;;;;;;5077179;28;20024;-62
2021/09/21 00:57:11;;;;;;;27.85;7.78;;;17.40;92.10;;;;;;5063448;28;20051;-62
2021/09/21 00:59:36;;;;;;;36.58;8.00;;;17.40;92.10;;;;;;5061813;28;20094;-62
2021/09/21 01:02:02;;;;;;;20.80;7.30;;;17.40;92.10;;;;;;5082403;28;20794;-62
2021/09/21 01:04:27;;;;;;;20.98;7.85;;;17.30;92.10;;;;;;5084740;28;20082;-62
2021/09/21 01:06:53;;;;;;;21.45;6.82;;;17.30;92.10;;;;;;5047501;28;20028;-62
2021/09/21 01:09:22;;;;;;;21.38;6.80;;;17.30;92.10;;;;;;5083485;28;20484;-62
2021/09/21 01:11:52;;;;;;;21.60;7.03;;;17.30;92.10;;;;;;5082752;28;20680;-62
2021/09/21 01:14:18;;;;;;;22.02;6.55;;;17.30;92.10;;;;;;5083633;28;20226;-62
2021/09/21 01:16:44;;;;;;;14.27;5.82;;;17.30;92.10;;;;;;5081944;28;20192;-62
2021/09/21 01:19:10;;;;;;;16.63;6.65;;;17.30;92.10;;;;;;5064290;28;20520;-62
2021/09/21 01:21:36;;;;;;;16.90;6.32;;;17.30;92.10;;;;;;5062856;28;20115;-62
2021/09/21 01:24:01;;;;;;;20.25;6.60;;;17.20;92.20;;;;;;5079386;28;20134;-62
2021/09/21 01:26:27;;;;;;;14.15;6.82;;;17.20;92.20;;;;;;5061097;28;20125;-62
2021/09/21 01:28:52;;;;;;;16.20;8.70;;;17.30;92.20;;;;;;5080974;28;20039;-62
2021/09/21 01:31:18;;;;;;;13.50;8.90;;;17.20;92.20;;;;;;5063966;28;20051;-62
2021/09/21 01:33:47;;;;;;;18.55;7.88;;;17.10;92.20;;;;;;5066126;28;20050;-62
2021/09/21 01:36:14;;;;;;;16.02;8.05;;;17.20;92.30;;;;;;5062834;28;20095;-62
2021/09/21 01:38:40;;;;;;;12.90;6.18;;;17.20;92.30;;;;;;5078748;28;20028;-62
2021/09/21 01:41:05;;;;;;;17.73;6.63;;;17.20;92.30;;;;;;5081934;28;20046;-62
2021/09/21 01:43:31;;;;;;;15.98;7.15;;;17.10;92.30;;;;;;5063768;28;20380;-62
2021/09/21 01:45:56;;;;;;;15.90;7.20;;;17.10;92.30;;;;;;5064326;28;20020;-62
2021/09/21 01:48:22;;;;;;;14.07;7.32;;;17.10;92.20;;;;;;5065359;28;20040;-62
2021/09/21 01:53:24;;;;;;;12.52;6.85;;;17.10;92.30;;;;;;5063743;28;20448;-62
2021/09/21 01:58:52;;;;;;;11.70;7.18;;;17.00;92.30;;;;;;5083123;28;20118;-62
2021/09/21 02:01:24;;;;;;;15.02;7.00;;;17.00;92.30;;;;;;5082009;28;20079;-62
2021/09/21 02:03:51;;;;;;;12.88;7.30;;;17.00;92.40;;;;;;5062928;28;20075;-62
2021/09/21 02:06:17;;;;;;;12.43;6.20;;;17.00;92.40;;;;;;5061593;28;20532;-62
2021/09/21 02:08:43;;;;;;;12.90;6.57;;;17.00;92.40;;;;;;5079812;28;20028;-62
2021/09/21 02:11:09;;;;;;;11.05;6.15;;;17.00;92.40;;;;;;5065647;28;20040;-62
2021/09/21 02:13:35;;;;;;;10.82;5.93;;;16.90;92.40;;;;;;5078615;28;20480;-62
2021/09/21 02:16:00;;;;;;;9.68;5.80;;;17.00;92.40;;;;;;5073829;28;20065;-62
2021/09/21 02:18:26;;;;;;;16.70;6.22;;;17.00;92.40;;;;;;5061935;28;20071;-62
2021/09/21 02:20:52;;;;;;;7.30;6.35;;;16.90;92.40;;;;;;5081092;28;20028;-62
2021/09/21 02:23:17;;;;;;;15.23;6.60;;;16.90;92.40;;;;;;5064419;28;20381;-62
2021/09/21 02:25:43;;;;;;;9.68;6.80;;;16.90;92.70;;;;;;5078498;28;20035;-62
2021/09/21 02:28:08;;;;;;;12.00;7.25;;;16.90;92.40;;;;;;5060661;28;20028;-62
2021/09/21 02:30:35;;;;;;;10.90;6.78;;;16.90;92.40;;;;;;5062092;28;20105;-62
2021/09/21 02:33:01;;;;;;;10.60;7.40;;;16.90;92.40;;;;;;5059882;28;20097;-62
2021/09/21 02:35:26;;;;;;;10.30;7.18;;;16.80;92.40;;;;;;5080720;28;20517;-62
2021/09/21 02:37:52;;;;;;;11.65;7.10;;;16.80;92.40;;;;;;5061771;28;20078;-62
2021/09/21 02:40:18;;;;;;;9.27;7.07;;;16.90;92.40;;;;;;5082801;28;20738;-62
2021/09/21 02:42:43;;;;;;;10.80;6.70;;;16.80;92.30;;;;;;5080474;28;20108;-62
2021/09/21 02:45:09;;;;;;;8.30;6.60;;;16.80;92.40;;;;;;5060441;28;20144;-61
2021/09/21 02:47:34;;;;;;;13.02;6.75;;;16.80;92.40;;;;;;5076758;28;20032;-62
2021/09/21 02:50:00;;;;;;;9.88;6.38;;;16.80;92.40;;;;;;5082085;28;20024;-62
2021/09/21 02:52:26;;;;;;;8.73;6.03;;;16.70;92.30;;;;;;5079667;28;20063;-62
2021/09/21 02:54:51;;;;;;;12.18;7.38;;;16.70;92.30;;;;;;5060159;28;20074;-62
2021/09/21 02:57:17;;;;;;;8.50;6.45;;;16.70;92.30;;;;;;5078798;28;20110;-62
2021/09/21 02:59:42;;;;;;;10.02;6.72;;;16.60;92.30;;;;;;5079312;28;20035;-62
2021/09/21 03:02:08;;;;;;;7.55;6.70;;;16.60;92.30;;;;;;5080678;28;21458;-62
2021/09/21 03:04:38;;;;;;;8.40;6.40;;;16.60;92.40;;;;;;5076199;28;20843;-62
2021/09/21 03:07:11;;;;;;;7.88;6.70;;;16.60;92.40;;;;;;5077599;28;20020;-62
2021/09/21 03:09:51;;;;;;;8.55;6.60;;;16.60;92.40;;;;;;5077766;28;20046;-62
2021/09/21 03:12:42;;;;;;;9.65;6.72;;;16.60;92.30;;;;;;5079985;28;20136;-63
2021/09/21 03:17:52;;;;;;;7.30;5.93;;;16.50;92.30;;;;;;5065401;28;20050;-62
2021/09/21 03:20:18;;;;;;;8.77;6.72;;;16.50;92.40;;;;;;5045864;28;20460;-62
2021/09/21 03:22:43;;;;;;;11.38;6.60;;;16.50;92.30;;;;;;5076183;28;20032;-62
2021/09/21 03:25:11;;;;;;;13.85;6.90;;;16.50;92.40;;;;;;5061578;28;20040;-62
2021/09/21 03:27:37;;;;;;;55.92;9.68;;;16.50;92.30;;;;;;5079913;28;20111;-62
2021/09/21 03:30:02;;;;;;;39.88;10.18;;;16.40;92.30;;;;;;5047196;28;20116;-62
2021/09/21 03:32:28;;;;;;;58.75;10.38;;;16.40;92.30;;;;;;5078268;28;20703;-62
2021/09/21 03:34:54;;;;;;;38.10;9.23;;;16.40;92.30;;;;;;5081355;28;20024;-62
2021/09/21 03:37:20;;;;;;;39.35;8.48;;;16.40;92.30;;;;;;5079250;28;20060;-62
2021/09/21 03:39:46;;;;;;;31.90;9.80;;;16.30;92.40;;;;;;5081987;28;20707;-62
2021/09/21 03:42:12;;;;;;;39.65;8.90;;;16.30;92.40;;;;;;5064726;28;20460;-62
2021/09/21 03:44:38;;;;;;;57.15;8.73;;;16.30;92.40;;;;;;5083001;28;20039;-62
2021/09/21 03:47:03;;;;;;;39.67;9.70;;;16.30;92.40;;;;;;5082785;28;20036;-62
2021/09/21 03:49:29;;;;;;;44.08;9.98;;;16.30;92.40;;;;;;5066266;28;20035;-62
2021/09/21 03:51:54;;;;;;;35.75;8.70;;;16.30;92.40;;;;;;5085630;28;20380;-62
2021/09/21 03:54:20;;;;;;;42.72;9.27;;;16.30;92.40;;;;;;5063668;28;20036;-62
2021/09/21 03:56:45;;;;;;;34.25;9.20;;;16.30;92.30;;;;;;5067416;28;20032;-62
2021/09/21 03:59:11;;;;;;;32.75;8.55;;;16.20;92.30;;;;;;5085168;28;20110;-62
2021/09/21 04:01:36;;;;;;;36.90;8.52;;;16.20;92.30;;;;;;5063522;28;20093;-62
2021/09/21 04:04:02;;;;;;;35.38;9.50;;;16.20;92.50;;;;;;5066432;28;20095;-62
2021/09/21 04:06:28;;;;;;;34.83;9.07;;;16.30;92.20;;;;;;5063584;28;20444;-62
2021/09/21 04:08:53;;;;;;;40.72;9.73;;;16.20;92.20;;;;;;5085448;28;20025;-62
2021/09/21 04:11:20;;;;;;;36.67;8.35;;;16.20;92.20;;;;;;5067242;28;20465;-62
2021/09/21 04:13:45;;;;;;;22.42;8.43;;;16.20;92.30;;;;;;5066062;28;21444;-62
2021/09/21 04:16:10;;;;;;;44.15;8.60;;;16.20;92.30;;;;;;5064941;28;20036;-62
2021/09/21 04:18:36;;;;;;;27.83;8.05;;;16.20;92.30;;;;;;5067747;28;20036;-62
2021/09/21 04:21:02;;;;;;;41.10;8.85;;;16.10;92.40;;;;;;5084337;28;20100;-62
2021/09/21 04:23:27;;;;;;;37.03;8.73;;;16.20;92.40;;;;;;5066640;28;20063;-62
2021/09/21 04:25:53;;;;;;;28.65;8.68;;;16.20;92.40;;;;;;5064105;28;20020;-62
2021/09/21 04:28:20;;;;;;;34.75;8.98;;;16.10;92.40;;;;;;5082045;28;20048;-62
2021/09/21 04:30:48;;;;;;;83.97;11.00;;;16.10;92.50;;;;;;5066310;28;20236;-62
2021/09/21 04:33:13;;;;;;;75.00;10.98;;;16.10;92.70;;;;;;5052299;28;20025;-62
2021/09/21 04:35:40;;;;;;;37.00;9.00;;;16.10;92.50;;;;;;5061066;28;20037;-62
2021/09/21 04:38:06;;;;;;;58.92;11.38;;;16.10;92.40;;;;;;5065972;28;20043;-62
2021/09/21 04:40:32;;;;;;;51.22;9.30;;;16.10;92.50;;;;;;5065165;28;20023;-62
2021/09/21 04:42:57;;;;;;;50.22;10.73;;;16.10;92.50;;;;;;5081450;28;20024;-62
2021/09/21 04:45:23;;;;;;;44.40;10.25;;;16.00;92.50;;;;;;5065586;28;20067;-62
2021/09/21 04:47:48;;;;;;;36.17;8.90;;;16.10;92.60;;;;;;5067137;28;20478;-62
2021/09/21 04:50:14;;;;;;;57.80;9.80;;;16.00;92.60;;;;;;5081880;28;20494;-62
2021/09/21 04:52:40;;;;;;;43.78;8.80;;;16.00;92.60;;;;;;5080761;28;20034;-62
2021/09/21 04:55:07;;;;;;;47.88;10.75;;;16.10;92.70;;;;;;5082057;28;20040;-63
2021/09/21 04:57:33;;;;;;;36.90;9.50;;;16.00;92.70;;;;;;5047294;28;20036;-62
2021/09/21 04:59:58;;;;;;;43.50;9.98;;;16.00;92.70;;;;;;5082503;28;20035;-62
2021/09/21 05:02:24;;;;;;;46.75;9.70;;;16.00;92.70;;;;;;5080882;28;20032;-62
2021/09/21 05:04:49;;;;;;;40.47;9.52;;;15.90;92.70;;;;;;5066581;28;20106;-62
2021/09/21 05:07:15;;;;;;;45.67;9.95;;;15.90;92.70;;;;;;5082032;28;20036;-62
2021/09/21 05:09:40;;;;;;;41.00;9.65;;;15.90;92.70;;;;;;5064827;28;20023;-62
2021/09/21 05:12:06;;;;;;;50.45;10.63;;;15.80;92.70;;;;;;5064123;28;20070;-62
2021/09/21 05:14:32;;;;;;;56.65;11.05;;;15.90;92.80;;;;;;5065492;28;20107;-62
2021/09/21 05:16:58;;;;;;;40.97;9.75;;;15.90;93.00;;;;;;5082164;28;20339;-62
2021/09/21 05:19:24;;;;;;;49.63;10.48;;;15.90;92.60;;;;;;5062285;28;20040;-63
2021/09/21 05:21:49;;;;;;;48.55;9.63;;;15.90;92.60;;;;;;5065455;28;20040;-62
2021/09/21 05:24:15;;;;;;;31.00;9.05;;;15.90;92.50;;;;;;5062641;28;20064;-62
2021/09/21 05:26:40;;;;;;;41.42;8.80;;;15.80;92.50;;;;;;5083036;28;20146;-62
2021/09/21 05:29:06;;;;;;;41.25;9.27;;;15.80;92.50;;;;;;5082679;28;20364;-62
2021/09/21 05:31:32;;;;;;;34.35;9.88;;;15.80;92.50;;;;;;5077701;28;20040;-62
2021/09/21 05:33:57;;;;;;;22.85;8.38;;;15.80;92.50;;;;;;5064189;28;20165;-62
2021/09/21 05:36:23;;;;;;;37.75;9.15;;;15.80;92.50;;;;;;5062283;28;20028;-62
2021/09/21 05:38:48;;;;;;;23.35;9.18;;;15.80;92.50;;;;;;5084663;28;20053;-62
2021/09/21 05:41:14;;;;;;;31.27;8.75;;;15.70;92.50;;;;;;5065184;28;20047;-62
2021/09/21 05:43:39;;;;;;;28.17;8.95;;;15.70;92.60;;;;;;5059072;28;20036;-62
2021/09/21 05:46:06;;;;;;;24.20;7.85;;;15.70;92.60;;;;;;5079120;28;20084;-62
2021/09/21 05:48:31;;;;;;;27.45;8.95;;;15.60;92.60;;;;;;5082547;28;20189;-62
2021/09/21 05:50:57;;;;;;;26.98;8.77;;;15.60;92.50;;;;;;5082242;28;20482;-61
2021/09/21 05:53:22;;;;;;;27.58;8.27;;;15.60;92.60;;;;;;5061583;28;20093;-61
2021/09/21 05:55:48;;;;;;;18.13;8.38;;;15.60;92.60;;;;;;5063290;28;20020;-62
2021/09/21 05:58:14;;;;;;;22.25;8.80;;;15.60;92.50;;;;;;5061368;28;20384;-62
2021/09/21 06:00:40;;;;;;;23.80;8.68;;;15.60;92.50;;;;;;5082185;28;20030;-62
2021/09/21 06:03:06;;;;;;;20.10;8.15;;;15.60;92.40;;;;;;5080709;28;20028;-61
2021/09/21 06:05:31;;;;;;;22.58;8.73;;;15.60;92.40;;;;;;5063783;28;20024;-62
2021/09/21 06:07:57;;;;;;;20.48;8.65;;;15.60;92.40;;;;;;5079667;28;20130;-62
2021/09/21 06:10:23;;;;;;;20.65;8.82;;;15.60;92.40;;;;;;5076173;28;20115;-62
2021/09/21 06:12:48;;;;;;;15.45;8.80;;;15.50;92.40;;;;;;5061534;28;20043;-62
2021/09/21 06:15:14;;;;;;;18.45;8.13;;;15.50;92.40;;;;;;5059385;28;20586;-62
2021/09/21 06:17:41;;;;;;;19.27;8.57;;;15.50;92.40;;;;;;5061068;28;20032;-62
2021/09/21 06:20:09;;;;;;;21.38;9.50;;;15.50;92.40;;;;;;5076851;28;20042;-62
2021/09/21 06:22:38;;;;;;;23.08;9.02;;;15.50;92.50;;;;;;5053655;28;20473;-62
2021/09/21 06:25:04;;;;;;;21.15;9.70;;;15.50;92.60;;;;;;5074768;28;20647;-62
2021/09/21 06:27:30;;;;;;;17.58;10.30;;;15.50;92.60;;;;;;5079312;28;20028;-62
2021/09/21 06:29:55;;;;;;;22.42;9.10;;;15.50;92.60;;;;;;5071245;28;20048;-62
2021/09/21 06:32:21;;;;;;;19.80;10.25;;;15.50;92.60;;;;;;5078497;28;20060;-62
2021/09/21 06:34:46;;;;;;;22.65;9.77;;;15.50;92.60;;;;;;5081235;28;20115;-62
2021/09/21 06:37:14;;;;;;;16.50;9.82;;;15.50;92.60;;;;;;5081391;28;20309;-62
2021/09/21 06:39:40;;;;;;;17.48;9.90;;;15.50;92.60;;;;;;5076566;28;20349;-62
2021/09/21 06:42:05;;;;;;;26.63;10.10;;;15.50;92.60;;;;;;5061829;28;20052;-62
2021/09/21 06:44:31;;;;;;;27.08;10.02;;;15.50;92.60;;;;;;5064300;28;20036;-61
2021/09/21 06:46:56;;;;;;;41.08;12.50;;;15.50;92.60;;;;;;5062879;28;20028;-62
2021/09/21 06:49:22;;;;;;;36.33;11.75;;;15.50;92.70;;;;;;5061680;28;20016;-62
2021/09/21 06:51:47;;;;;;;28.95;11.35;;;15.50;92.70;;;;;;5077977;28;20059;-62
2021/09/21 06:54:13;;;;;;;34.80;12.15;;;15.50;92.60;;;;;;5057677;28;20024;-62
2021/09/21 06:56:38;;;;;;;63.80;14.80;;;15.50;92.60;;;;;;5080367;28;20027;-62
2021/09/21 06:59:04;;;;;;;116.00;17.25;;;15.50;92.60;;;;;;5081423;28;20128;-62
2021/09/21 07:01:29;;;;;;;477.70;43.50;;;15.50;92.70;;;;;;5077629;28;20024;-62
2021/09/21 07:03:55;;;;;;;104.30;17.73;;;15.50;92.80;;;;;;5078961;28;20869;-62
2021/09/21 07:06:20;;;;;;;241.23;25.27;;;15.60;92.80;;;;;;5077931;28;20427;-62
2021/09/21 07:08:46;;;;;;;68.03;12.93;;;15.50;92.70;;;;;;5078316;28;20016;-61
2021/09/21 07:11:13;;;;;;;58.88;13.20;;;15.50;92.70;;;;;;5079879;28;20117;-62
2021/09/21 07:13:39;;;;;;;44.35;13.93;;;15.50;92.80;;;;;;5080250;28;20478;-62
2021/09/21 07:16:04;;;;;;;31.77;12.90;;;15.50;92.90;;;;;;5083051;28;20110;-62
2021/09/21 07:18:30;;;;;;;34.00;13.20;;;15.50;92.90;;;;;;5059929;28;20107;-62
2021/09/21 07:20:55;;;;;;;35.70;13.15;;;15.50;92.90;;;;;;5065014;28;20869;-62
2021/09/21 07:23:21;;;;;;;35.10;13.65;;;15.50;93.00;;;;;;5082957;28;20052;-62
2021/09/21 07:25:46;;;;;;;31.40;13.32;;;15.40;93.10;;;;;;5085150;28;20313;-62
2021/09/21 07:28:12;;;;;;;28.98;13.27;;;15.40;93.20;;;;;;5065810;28;20538;-62
2021/09/21 07:30:37;;;;;;;27.52;12.52;;;15.40;93.20;;;;;;5063466;28;20029;-62
2021/09/21 07:33:05;;;;;;;43.95;14.75;;;15.40;93.30;;;;;;5082764;28;20036;-62
2021/09/21 07:35:30;;;;;;;46.15;14.40;;;15.30;93.50;;;;;;5063317;28;20086;-62
2021/09/21 07:37:56;;;;;;;30.23;14.45;;;15.30;93.40;;;;;;5080545;28;20438;-62
2021/09/21 07:40:21;;;;;;;22.77;12.52;;;15.30;93.40;;;;;;5065982;28;20952;-62
2021/09/21 07:42:48;;;;;;;43.17;14.30;;;15.20;93.40;;;;;;5049851;28;20047;-62
2021/09/21 07:45:13;;;;;;;25.20;12.77;;;15.20;93.50;;;;;;5063721;28;20111;-62
2021/09/21 07:47:39;;;;;;;29.40;12.32;;;15.30;93.60;;;;;;5082098;28;20119;-62
2021/09/21 07:50:06;;;;;;;37.30;13.75;;;15.20;93.60;;;;;;5086732;28;20619;-62
2021/09/21 07:52:32;;;;;;;26.67;12.77;;;15.30;94.00;;;;;;5064543;28;20064;-62
2021/09/21 07:54:58;;;;;;;42.08;12.95;;;15.30;93.80;;;;;;5064166;28;20173;-62
2021/09/21 07:57:24;;;;;;;39.10;12.60;;;15.30;93.80;;;;;;5063521;28;20059;-62
2021/09/21 07:59:50;;;;;;;48.72;14.55;;;15.30;93.80;;;;;;5081800;28;20024;-62
2021/09/21 08:02:15;;;;;;;36.03;13.82;;;15.30;93.80;;;;;;5081593;28;22083;-62
2021/09/21 08:04:42;;;;;;;27.48;12.35;;;15.30;93.80;;;;;;5065278;28;20099;-62
2021/09/21 08:07:08;;;;;;;23.55;11.38;;;15.30;93.90;;;;;;5063109;28;20048;-62
2021/09/21 08:09:33;;;;;;;32.20;12.38;;;15.30;93.80;;;;;;5080433;28;20064;-62
2021/09/21 08:11:59;;;;;;;20.30;12.32;;;15.30;93.70;;;;;;5063051;28;20472;-62
2021/09/21 08:14:24;;;;;;;23.40;11.93;;;15.30;93.60;;;;;;5063904;28;20637;-62
2021/09/21 08:16:50;;;;;;;25.35;12.40;;;15.30;93.70;;;;;;5079889;28;20145;-62
2021/09/21 08:19:15;;;;;;;18.23;12.35;;;15.30;93.70;;;;;;5082040;28;20126;-62
2021/09/21 08:21:41;;;;;;;24.13;11.70;;;15.30;93.70;;;;;;5081095;28;20040;-62
2021/09/21 08:24:07;;;;;;;23.45;12.57;;;15.30;93.60;;;;;;5059023;28;20038;-62
2021/09/21 08:26:32;;;;;;;38.85;13.55;;;15.30;93.60;;;;;;5080979;28;20028;-62
2021/09/21 08:28:58;;;;;;;36.75;13.52;;;15.30;93.60;;;;;;5064490;28;20166;-62
2021/09/21 08:31:23;;;;;;;31.90;13.45;;;15.30;93.60;;;;;;5082930;28;20434;-62
2021/09/21 08:33:49;;;;;;;26.35;12.95;;;15.30;93.60;;;;;;5063253;28;20424;-62
2021/09/21 08:36:15;;;;;;;27.52;13.60;;;15.30;93.50;;;;;;5061841;28;20472;-62
2021/09/21 08:38:40;;;;;;;24.58;13.25;;;15.30;93.50;;;;;;5078956;28;20044;-62
2021/09/21 08:41:06;;;;;;;43.70;14.75;;;15.30;93.50;;;;;;5059150;28;20215;-62
2021/09/21 08:43:31;;;;;;;40.25;12.88;;;15.40;93.60;;;;;;5083306;28;20757;-62
2021/09/21 08:45:57;;;;;;;55.25;14.43;;;15.30;93.60;;;;;;5062863;28;20471;-62
2021/09/21 08:48:23;;;;;;;25.27;13.18;;;15.30;93.60;;;;;;5061959;28;20429;-62
2021/09/21 08:50:48;;;;;;;43.25;14.05;;;15.40;93.60;;;;;;5062251;28;20108;-64
2021/09/21 08:53:14;;;;;;;43.75;14.60;;;15.30;93.90;;;;;;5066995;28;20182;-62
2021/09/21 08:55:39;;;;;;;37.15;14.40;;;15.40;93.70;;;;;;5082167;28;20111;-62
2021/09/21 08:58:05;;;;;;;27.80;13.27;;;15.40;93.60;;;;;;5080349;28;20054;-62
2021/09/21 09:00:31;;;;;;;96.65;16.45;;;15.40;93.60;;;;;;5062239;28;20028;-62
2021/09/21 09:03:04;;;;;;;43.72;13.85;;;15.40;93.60;;;;;;5081369;28;20036;-62
2021/09/21 09:05:41;;;;;;;37.80;13.00;;;15.50;93.60;;;;;;5060586;28;20423;-62
2021/09/21 09:08:06;;;;;;;34.20;12.40;;;15.50;93.50;;;;;;5063355;28;20032;-62
2021/09/21 09:10:32;;;;;;;43.63;13.05;;;15.50;93.40;;;;;;5080789;28;20046;-62
2021/09/21 09:12:57;;;;;;;35.90;12.48;;;15.60;93.40;;;;;;5066621;28;20546;-63
2021/09/21 09:15:26;;;;;;;27.15;12.13;;;15.50;93.30;;;;;;5023342;28;20076;-63
2021/09/21 09:17:56;;;;;;;36.05;12.65;;;15.60;93.30;;;;;;5050429;28;20036;-62
2021/09/21 09:20:44;;;;;;;59.22;14.90;;;15.60;93.20;;;;;;5073266;28;20186;-63
2021/09/21 09:23:10;;;;;;;39.30;12.93;;;15.60;93.40;;;;;;5052822;28;20036;-63
2021/09/21 09:25:46;;;;;;;23.33;11.75;;;15.70;93.20;;;;;;5072895;28;20031;-63
2021/09/21 09:28:23;;;;;;;35.47;11.25;;;15.70;93.20;;;;;;5055020;28;20047;-62
2021/09/21 09:30:49;;;;;;;38.60;12.25;;;15.80;93.10;;;;;;5071372;28;20475;-62
2021/09/21 09:33:15;;;;;;;37.55;12.48;;;15.80;93.00;;;;;;5031123;28;20035;-62
2021/09/21 09:35:43;;;;;;;37.50;12.35;;;15.90;93.00;;;;;;5065631;28;20036;-62
2021/09/21 09:38:10;;;;;;;39.88;12.98;;;15.90;93.10;;;;;;5050530;28;20299;-62
2021/09/21 09:40:50;;;;;;;32.83;13.02;;;15.90;93.10;;;;;;5048882;28;20040;-62
2021/09/21 09:43:16;;;;;;;110.03;17.20;;;16.00;93.00;;;;;;5067342;28;20103;-62
2021/09/21 09:45:43;;;;;;;38.22;12.07;;;16.00;93.00;;;;;;5047479;28;20119;-62
2021/09/21 09:48:13;;;;;;;81.60;14.43;;;16.00;92.90;;;;;;5055800;28;20487;-62
2021/09/21 09:50:42;;;;;;;46.25;13.30;;;16.00;92.90;;;;;;5066650;28;20133;-62
2021/09/21 09:53:13;;;;;;;51.10;13.25;;;16.00;92.70;;;;;;5071780;28;20094;-62
2021/09/21 09:55:44;;;;;;;46.63;13.23;;;16.10;92.50;;;;;;5033770;28;20035;-62
2021/09/21 09:58:10;;;;;;;34.05;11.63;;;16.10;92.50;;;;;;5072540;28;20024;-62
2021/09/21 10:00:36;;;;;;;46.28;12.65;;;16.20;92.50;;;;;;5054760;28;20573;-62
2021/09/21 10:03:02;;;;;;;34.25;12.00;;;16.10;92.40;;;;;;5052494;28;20024;-62
2021/09/21 10:05:32;;;;;;;37.55;12.73;;;16.20;92.40;;;;;;5061494;28;20036;-62
2021/09/21 10:07:58;;;;;;;45.85;12.20;;;16.20;92.00;;;;;;5046868;28;20162;-62
2021/09/21 10:10:28;;;;;;;30.88;11.82;;;16.20;92.00;;;;;;5049383;28;20565;-62
2021/09/21 10:12:54;;;;;;;41.63;12.52;;;16.20;91.90;;;;;;5067787;28;20082;-62
2021/09/21 10:15:20;;;;;;;46.05;11.93;;;16.30;91.80;;;;;;5049944;28;20487;-63
2021/09/21 10:17:50;;;;;;;58.80;12.85;;;16.30;91.60;;;;;;5078580;28;20020;-62
2021/09/21 10:20:16;;;;;;;44.40;12.68;;;16.30;91.50;;;;;;5058235;28;20283;-62
2021/09/21 10:22:41;;;;;;;40.38;12.15;;;16.30;91.50;;;;;;5060226;28;20039;-62
2021/09/21 10:25:08;;;;;;;34.35;11.85;;;16.40;91.50;;;;;;5062979;28;20087;-62
2021/09/21 10:27:38;;;;;;;39.78;11.77;;;16.40;91.30;;;;;;5083063;28;20466;-62
2021/09/21 10:30:08;;;;;;;31.52;11.65;;;16.40;91.30;;;;;;5064533;28;20035;-62
2021/09/21 10:32:42;;;;;;;18.45;11.15;;;16.40;91.10;;;;;;5062839;28;20718;-62
2021/09/21 10:35:13;;;;;;;26.20;11.33;;;16.50;91.20;;;;;;5046415;28;20530;-62
2021/09/21 10:37:38;;;;;;;52.65;12.77;;;16.50;91.20;;;;;;5076028;28;20055;-62
2021/09/21 10:40:05;;;;;;;51.80;13.02;;;16.50;91.20;;;;;;5060848;28;20097;-63
2021/09/21 10:42:31;;;;;;;55.50;13.32;;;16.60;91.20;;;;;;5059203;28;20499;-62
2021/09/21 10:45:02;;;;;;;34.65;12.35;;;16.60;91.20;;;;;;5050139;28;20292;-62
2021/09/21 10:47:29;;;;;;;48.25;12.25;;;16.60;91.00;;;;;;5048503;28;20225;-62
2021/09/21 10:50:14;;;;;;;26.92;11.93;;;16.60;91.10;;;;;;5051654;28;20183;-62
2021/09/21 10:52:40;;;;;;;49.13;12.17;;;16.70;91.00;;;;;;5069679;28;20381;-62
2021/09/21 10:55:07;;;;;;;33.55;12.30;;;16.70;91.00;;;;;;5055696;28;20534;-62
2021/09/21 10:57:40;;;;;;;51.17;12.55;;;16.70;91.00;;;;;;5061217;28;20027;-62
2021/09/21 11:00:16;;;;;;;29.85;11.32;;;16.70;90.80;;;;;;5076783;28;20041;-62
2021/09/21 11:02:46;;;;;;;41.30;11.65;;;16.80;90.60;;;;;;5064408;28;20340;-62
2021/09/21 11:05:15;;;;;;;28.85;10.80;;;16.80;90.50;;;;;;5080235;28;20024;-62
2021/09/21 11:08:11;;;;;;;34.60;10.93;;;16.80;90.40;;;;;;5057896;28;20025;-62
2021/09/21 11:10:38;;;;;;;23.73;9.75;;;16.80;90.30;;;;;;5075381;28;20129;-62
2021/09/21 11:13:16;;;;;;;36.53;10.50;;;16.90;90.20;;;;;;5078069;28;20310;-63
2021/09/21 11:15:42;;;;;;;32.03;9.63;;;16.90;90.20;;;;;;5062943;28;20024;-63
2021/09/21 11:18:18;;;;;;;35.33;10.15;;;16.90;90.00;;;;;;5043946;28;20028;-62
2021/09/21 11:20:52;;;;;;;21.77;8.77;;;17.00;89.60;;;;;;5041806;28;20035;-62
2021/09/21 11:23:19;;;;;;;24.02;9.00;;;17.10;89.30;;;;;;5062017;28;20073;-62
2021/09/21 11:25:45;;;;;;;22.38;9.73;;;17.10;89.10;;;;;;5042335;28;20127;-62
2021/09/21 11:28:11;;;;;;;23.92;9.65;;;17.10;89.00;;;;;;5075030;28;20118;-62
2021/09/21 11:30:38;;;;;;;22.92;8.82;;;17.10;89.00;;;;;;5080485;28;20032;-62
2021/09/21 11:33:20;;;;;;;26.65;9.60;;;17.10;88.90;;;;;;5073892;28;20044;-62
2021/09/21 11:35:47;;;;;;;17.55;9.00;;;17.20;89.00;;;;;;5077022;28;20027;-62
2021/09/21 11:38:12;;;;;;;37.75;10.55;;;17.20;88.60;;;;;;5058645;28;20857;-62
2021/09/21 11:40:42;;;;;;;24.80;10.93;;;17.30;88.10;;;;;;5078108;28;20024;-63
2021/09/21 11:43:08;;;;;;;27.10;9.30;;;17.30;87.50;;;;;;5061145;28;20032;-62
2021/09/21 11:45:33;;;;;;;19.75;8.30;;;17.40;87.20;;;;;;5078482;28;20038;-62
2021/09/21 11:47:59;;;;;;;18.52;8.10;;;17.30;87.10;;;;;;5078729;28;20024;-62
2021/09/21 11:50:30;;;;;;;25.08;8.38;;;17.40;86.50;;;;;;5059376;28;20024;-62
2021/09/21 11:53:02;;;;;;;55.03;11.25;;;17.40;86.20;;;;;;5078001;28;20529;-62
2021/09/21 11:55:30;;;;;;;20.92;7.88;;;17.40;86.20;;;;;;5061936;28;20044;-62
2021/09/21 11:57:56;;;;;;;22.05;7.35;;;17.50;85.10;;;;;;5079272;28;20050;-62
2021/09/21 12:00:31;;;;;;;8.75;5.50;;;17.50;84.20;;;;;;5061878;28;20035;-62
2021/09/21 12:03:07;;;;;;;11.27;4.70;;;17.60;81.00;;;;;;5061924;28;20435;-62
2021/09/21 12:05:33;;;;;;;24.35;5.90;;;17.60;80.10;;;;;;5083083;28;20298;-61
2021/09/21 12:08:20;;;;;;;15.40;5.55;;;17.60;79.80;;;;;;5084593;28;20028;-61
2021/09/21 12:10:50;;;;;;;15.70;5.30;;;17.70;78.90;;;;;;5071154;28;20051;-61
2021/09/21 12:13:18;;;;;;;13.18;4.65;;;17.80;77.20;;;;;;5066210;28;20020;-61
2021/09/21 12:15:47;;;;;;;15.98;4.95;;;17.80;76.70;;;;;;5066747;28;20079;-61
2021/09/21 12:18:13;;;;;;;31.17;6.32;;;17.80;76.30;;;;;;5066570;28;20433;-61
2021/09/21 12:20:39;;;;;;;18.63;4.60;;;17.80;76.30;;;;;;5050727;28;20047;-61
2021/09/21 12:23:06;;;;;;;16.42;4.78;;;17.90;75.30;;;;;;5062944;28;20021;-61
2021/09/21 12:25:32;;;;;;;27.00;5.65;;;17.90;75.40;;;;;;5062363;28;20107;-61
2021/09/21 12:27:58;;;;;;;28.90;5.13;;;17.90;75.00;;;;;;5065624;28;20020;-61
2021/09/21 12:30:27;;;;;;;39.05;6.55;;;18.00;75.30;;;;;;5064860;28;20051;-61
2021/09/21 12:32:56;;;;;;;25.13;5.03;;;18.00;75.20;;;;;;5080476;28;20091;-60
2021/09/21 12:35:25;;;;;;;33.53;5.90;;;18.00;75.30;;;;;;5083949;28;21224;-61
2021/09/21 12:37:53;;;;;;;16.00;4.68;;;18.00;75.20;;;;;;5067058;28;20306;-61
2021/09/21 12:40:18;;;;;;;28.15;5.57;;;18.10;74.70;;;;;;5067263;28;20179;-61